sensor_id;sensor_type;location;lat;lon;timestamp;P1;durP1;ratioP1;P2;durP2;ratioP2
46491;SDS011;32206;51.446;6.792;2023-05-14T00:00:59;10.90;;;7.30;;
46491;SDS011;32206;51.446;6.792;2023-05-14T00:03:25;10.60;;;7.93;;
46491;SDS011;32206;51.446;6.792;2023-05-14T00:05:50;8.95;;;7.00;;
46491;SDS011;32206;51.446;6.792;2023-05-14T00:08:16;8.90;;;7.78;;
46491;SDS011;32206;51.446;6.792;2023-05-14T00:10:42;8.05;;;7.22;;
46491;SDS011;32206;51.446;6.792;2023-05-14T00:13:07;11.88;;;7.90;;
46491;SDS011;32206;51.446;6.792;2023-05-14T00:15:33;17.25;;;7.40;;
46491;SDS011;32206;51.446;6.792;2023-05-14T00:17:59;10.75;;;7.80;;
46491;SDS011;32206;51.446;6.792;2023-05-14T00:20:24;10.55;;;8.13;;
46491;SDS011;32206;51.446;6.792;2023-05-14T00:22:50;13.82;;;8.32;;
46491;SDS011;32206;51.446;6.792;2023-05-14T00:25:15;9.02;;;8.02;;
46491;SDS011;32206;51.446;6.792;2023-05-14T00:27:41;9.38;;;8.35;;
46491;SDS011;32206;51.446;6.792;2023-05-14T00:30:07;15.65;;;8.40;;
46491;SDS011;32206;51.446;6.792;2023-05-14T00:32:32;12.55;;;8.43;;
46491;SDS011;32206;51.446;6.792;2023-05-14T00:34:58;9.95;;;8.77;;
46491;SDS011;32206;51.446;6.792;2023-05-14T00:37:24;9.77;;;8.77;;
46491;SDS011;32206;51.446;6.792;2023-05-14T00:39:50;9.77;;;8.77;;
46491;SDS011;32206;51.446;6.792;2023-05-14T00:48:28;9.45;;;8.27;;
46491;SDS011;32206;51.446;6.792;2023-05-14T00:54:25;12.20;;;8.70;;
46491;SDS011;32206;51.446;6.792;2023-05-14T00:59:17;11.30;;;8.63;;
46491;SDS011;32206;51.446;6.792;2023-05-14T01:01:43;11.45;;;9.00;;
46491;SDS011;32206;51.446;6.792;2023-05-14T01:04:09;12.48;;;8.50;;
46491;SDS011;32206;51.446;6.792;2023-05-14T01:17:39;9.57;;;8.68;;
46491;SDS011;32206;51.446;6.792;2023-05-14T01:30:39;12.70;;;9.00;;
46491;SDS011;32206;51.446;6.792;2023-05-14T01:33:14;10.65;;;9.48;;
46491;SDS011;32206;51.446;6.792;2023-05-14T01:35:42;10.52;;;9.43;;
46491;SDS011;32206;51.446;6.792;2023-05-14T01:38:12;14.32;;;10.25;;
46491;SDS011;32206;51.446;6.792;2023-05-14T01:40:41;13.15;;;9.52;;
46491;SDS011;32206;51.446;6.792;2023-05-14T01:43:09;12.52;;;9.10;;
46491;SDS011;32206;51.446;6.792;2023-05-14T01:45:35;13.85;;;10.27;;
46491;SDS011;32206;51.446;6.792;2023-05-14T01:48:01;11.77;;;10.57;;
46491;SDS011;32206;51.446;6.792;2023-05-14T01:50:28;13.60;;;11.05;;
46491;SDS011;32206;51.446;6.792;2023-05-14T01:53:02;13.27;;;11.93;;
46491;SDS011;32206;51.446;6.792;2023-05-14T01:55:28;12.63;;;10.25;;
46491;SDS011;32206;51.446;6.792;2023-05-14T01:57:54;13.30;;;10.90;;
46491;SDS011;32206;51.446;6.792;2023-05-14T02:00:21;12.18;;;10.63;;
46491;SDS011;32206;51.446;6.792;2023-05-14T02:02:49;14.25;;;11.13;;
46491;SDS011;32206;51.446;6.792;2023-05-14T02:11:58;12.93;;;11.63;;
46491;SDS011;32206;51.446;6.792;2023-05-14T02:14:24;11.85;;;10.63;;
46491;SDS011;32206;51.446;6.792;2023-05-14T02:16:50;17.83;;;12.82;;
46491;SDS011;32206;51.446;6.792;2023-05-14T02:19:16;15.98;;;10.55;;
46491;SDS011;32206;51.446;6.792;2023-05-14T02:21:41;17.48;;;13.95;;
46491;SDS011;32206;51.446;6.792;2023-05-14T02:24:07;14.15;;;11.55;;
46491;SDS011;32206;51.446;6.792;2023-05-14T02:26:32;11.25;;;10.10;;
46491;SDS011;32206;51.446;6.792;2023-05-14T02:28:58;12.60;;;10.13;;
46491;SDS011;32206;51.446;6.792;2023-05-14T02:31:24;11.48;;;10.35;;
46491;SDS011;32206;51.446;6.792;2023-05-14T02:33:49;12.00;;;10.80;;
46491;SDS011;32206;51.446;6.792;2023-05-14T02:36:15;11.38;;;10.05;;
46491;SDS011;32206;51.446;6.792;2023-05-14T02:38:40;12.88;;;11.35;;
46491;SDS011;32206;51.446;6.792;2023-05-14T02:41:06;13.63;;;11.50;;
46491;SDS011;32206;51.446;6.792;2023-05-14T02:43:32;15.90;;;10.85;;
46491;SDS011;32206;51.446;6.792;2023-05-14T02:45:57;12.18;;;11.00;;
46491;SDS011;32206;51.446;6.792;2023-05-14T02:48:23;12.27;;;10.98;;
46491;SDS011;32206;51.446;6.792;2023-05-14T02:50:49;16.23;;;11.85;;
46491;SDS011;32206;51.446;6.792;2023-05-14T02:53:16;14.13;;;10.98;;
46491;SDS011;32206;51.446;6.792;2023-05-14T02:55:41;15.57;;;11.15;;
46491;SDS011;32206;51.446;6.792;2023-05-14T02:58:07;11.77;;;10.57;;
46491;SDS011;32206;51.446;6.792;2023-05-14T03:00:33;12.50;;;10.88;;
46491;SDS011;32206;51.446;6.792;2023-05-14T03:02:58;12.32;;;11.10;;
46491;SDS011;32206;51.446;6.792;2023-05-14T03:05:24;14.98;;;10.30;;
46491;SDS011;32206;51.446;6.792;2023-05-14T03:07:50;13.63;;;10.18;;
46491;SDS011;32206;51.446;6.792;2023-05-14T03:10:17;13.10;;;11.27;;
46491;SDS011;32206;51.446;6.792;2023-05-14T03:12:43;11.05;;;10.07;;
46491;SDS011;32206;51.446;6.792;2023-05-14T03:15:09;12.75;;;11.00;;
46491;SDS011;32206;51.446;6.792;2023-05-14T03:17:35;17.40;;;10.35;;
46491;SDS011;32206;51.446;6.792;2023-05-14T03:20:01;12.77;;;10.70;;
46491;SDS011;32206;51.446;6.792;2023-05-14T03:22:27;11.75;;;10.65;;
46491;SDS011;32206;51.446;6.792;2023-05-14T03:24:53;13.70;;;10.95;;
46491;SDS011;32206;51.446;6.792;2023-05-14T03:27:18;12.60;;;11.40;;
46491;SDS011;32206;51.446;6.792;2023-05-14T03:29:44;14.00;;;10.88;;
46491;SDS011;32206;51.446;6.792;2023-05-14T03:32:10;16.83;;;11.32;;
46491;SDS011;32206;51.446;6.792;2023-05-14T03:34:36;13.25;;;11.98;;
46491;SDS011;32206;51.446;6.792;2023-05-14T03:37:02;13.02;;;11.68;;
46491;SDS011;32206;51.446;6.792;2023-05-14T03:39:27;12.55;;;10.85;;
46491;SDS011;32206;51.446;6.792;2023-05-14T03:41:53;15.48;;;12.52;;
46491;SDS011;32206;51.446;6.792;2023-05-14T03:44:21;14.88;;;11.88;;
46491;SDS011;32206;51.446;6.792;2023-05-14T03:46:46;14.48;;;12.20;;
46491;SDS011;32206;51.446;6.792;2023-05-14T03:49:12;14.85;;;11.80;;
46491;SDS011;32206;51.446;6.792;2023-05-14T03:51:37;12.00;;;10.90;;
46491;SDS011;32206;51.446;6.792;2023-05-14T03:54:03;13.02;;;11.35;;
46491;SDS011;32206;51.446;6.792;2023-05-14T03:56:29;13.88;;;11.57;;
46491;SDS011;32206;51.446;6.792;2023-05-14T03:58:55;13.43;;;12.02;;
46491;SDS011;32206;51.446;6.792;2023-05-14T04:01:20;13.73;;;12.32;;
46491;SDS011;32206;51.446;6.792;2023-05-14T04:03:46;14.35;;;12.90;;
46491;SDS011;32206;51.446;6.792;2023-05-14T04:12:55;16.58;;;12.30;;
46491;SDS011;32206;51.446;6.792;2023-05-14T04:15:21;14.15;;;12.60;;
46491;SDS011;32206;51.446;6.792;2023-05-14T04:17:47;13.45;;;12.07;;
46491;SDS011;32206;51.446;6.792;2023-05-14T04:20:13;14.10;;;12.35;;
46491;SDS011;32206;51.446;6.792;2023-05-14T04:22:38;14.70;;;11.90;;
46491;SDS011;32206;51.446;6.792;2023-05-14T04:25:04;14.95;;;11.73;;
46491;SDS011;32206;51.446;6.792;2023-05-14T04:27:31;14.43;;;12.52;;
46491;SDS011;32206;51.446;6.792;2023-05-14T04:29:58;18.40;;;13.15;;
46491;SDS011;32206;51.446;6.792;2023-05-14T04:32:23;14.10;;;12.68;;
46491;SDS011;32206;51.446;6.792;2023-05-14T04:34:49;16.20;;;12.18;;
46491;SDS011;32206;51.446;6.792;2023-05-14T04:37:15;16.42;;;12.02;;
46491;SDS011;32206;51.446;6.792;2023-05-14T04:39:41;12.82;;;11.43;;
46491;SDS011;32206;51.446;6.792;2023-05-14T04:42:06;12.60;;;10.65;;
46491;SDS011;32206;51.446;6.792;2023-05-14T04:44:33;16.10;;;11.75;;
46491;SDS011;32206;51.446;6.792;2023-05-14T04:46:59;15.88;;;12.02;;
46491;SDS011;32206;51.446;6.792;2023-05-14T04:49:24;15.52;;;11.75;;
46491;SDS011;32206;51.446;6.792;2023-05-14T04:51:50;12.48;;;10.98;;
46491;SDS011;32206;51.446;6.792;2023-05-14T04:54:16;13.23;;;11.93;;
46491;SDS011;32206;51.446;6.792;2023-05-14T04:56:42;12.98;;;11.52;;
46491;SDS011;32206;51.446;6.792;2023-05-14T04:59:07;15.07;;;12.57;;
46491;SDS011;32206;51.446;6.792;2023-05-14T05:01:35;14.68;;;13.23;;
46491;SDS011;32206;51.446;6.792;2023-05-14T05:04:01;14.15;;;12.77;;
46491;SDS011;32206;51.446;6.792;2023-05-14T05:06:27;16.00;;;13.25;;
46491;SDS011;32206;51.446;6.792;2023-05-14T05:08:52;15.45;;;13.85;;
46491;SDS011;32206;51.446;6.792;2023-05-14T05:11:19;15.48;;;13.85;;
46491;SDS011;32206;51.446;6.792;2023-05-14T05:13:45;15.43;;;13.10;;
46491;SDS011;32206;51.446;6.792;2023-05-14T05:19:18;15.07;;;13.05;;
46491;SDS011;32206;51.446;6.792;2023-05-14T05:28:29;15.07;;;13.57;;
46491;SDS011;32206;51.446;6.792;2023-05-14T05:30:54;14.63;;;13.23;;
46491;SDS011;32206;51.446;6.792;2023-05-14T05:33:20;16.67;;;14.93;;
46491;SDS011;32206;51.446;6.792;2023-05-14T05:35:46;15.70;;;14.20;;
46491;SDS011;32206;51.446;6.792;2023-05-14T05:38:13;16.20;;;13.77;;
46491;SDS011;32206;51.446;6.792;2023-05-14T05:40:40;16.35;;;14.30;;
46491;SDS011;32206;51.446;6.792;2023-05-14T05:43:05;16.20;;;14.38;;
46491;SDS011;32206;51.446;6.792;2023-05-14T05:45:31;17.60;;;15.05;;
46491;SDS011;32206;51.446;6.792;2023-05-14T05:47:57;17.80;;;15.88;;
46491;SDS011;32206;51.446;6.792;2023-05-14T05:50:22;17.15;;;15.43;;
46491;SDS011;32206;51.446;6.792;2023-05-14T05:52:48;60.78;;;40.85;;
46491;SDS011;32206;51.446;6.792;2023-05-14T05:55:14;106.07;;;67.85;;
46491;SDS011;32206;51.446;6.792;2023-05-14T05:57:39;49.30;;;34.90;;
46491;SDS011;32206;51.446;6.792;2023-05-14T06:00:05;24.48;;;20.10;;
46491;SDS011;32206;51.446;6.792;2023-05-14T06:02:41;20.80;;;16.88;;
46491;SDS011;32206;51.446;6.792;2023-05-14T06:08:29;18.27;;;16.13;;
46491;SDS011;32206;51.446;6.792;2023-05-14T06:17:40;17.48;;;15.68;;
46491;SDS011;32206;51.446;6.792;2023-05-14T06:20:05;18.10;;;15.55;;
46491;SDS011;32206;51.446;6.792;2023-05-14T06:22:32;42.90;;;26.55;;
46491;SDS011;32206;51.446;6.792;2023-05-14T06:24:58;77.55;;;51.88;;
46491;SDS011;32206;51.446;6.792;2023-05-14T06:27:23;67.35;;;44.83;;
46491;SDS011;32206;51.446;6.792;2023-05-14T06:29:49;32.95;;;24.05;;
46491;SDS011;32206;51.446;6.792;2023-05-14T06:32:15;19.95;;;17.65;;
46491;SDS011;32206;51.446;6.792;2023-05-14T06:34:41;23.85;;;16.10;;
46491;SDS011;32206;51.446;6.792;2023-05-14T06:37:08;22.45;;;16.92;;
46491;SDS011;32206;51.446;6.792;2023-05-14T06:39:40;18.58;;;15.05;;
46491;SDS011;32206;51.446;6.792;2023-05-14T06:42:12;18.88;;;14.90;;
46491;SDS011;32206;51.446;6.792;2023-05-14T06:44:37;18.40;;;16.60;;
46491;SDS011;32206;51.446;6.792;2023-05-14T06:47:03;18.98;;;14.27;;
46491;SDS011;32206;51.446;6.792;2023-05-14T06:49:32;18.15;;;14.98;;
46491;SDS011;32206;51.446;6.792;2023-05-14T06:51:58;18.83;;;14.07;;
46491;SDS011;32206;51.446;6.792;2023-05-14T06:54:24;22.30;;;14.40;;
46491;SDS011;32206;51.446;6.792;2023-05-14T06:56:50;18.48;;;14.30;;
46491;SDS011;32206;51.446;6.792;2023-05-14T06:59:15;15.25;;;13.68;;
46491;SDS011;32206;51.446;6.792;2023-05-14T07:01:41;15.93;;;14.23;;
46491;SDS011;32206;51.446;6.792;2023-05-14T07:04:07;14.63;;;13.13;;
46491;SDS011;32206;51.446;6.792;2023-05-14T07:06:32;14.85;;;13.00;;
46491;SDS011;32206;51.446;6.792;2023-05-14T07:08:59;16.40;;;12.95;;
46491;SDS011;32206;51.446;6.792;2023-05-14T07:11:26;15.73;;;13.30;;
46491;SDS011;32206;51.446;6.792;2023-05-14T07:13:51;18.17;;;13.68;;
46491;SDS011;32206;51.446;6.792;2023-05-14T07:16:17;114.53;;;73.43;;
46491;SDS011;32206;51.446;6.792;2023-05-14T07:18:43;52.25;;;36.35;;
46491;SDS011;32206;51.446;6.792;2023-05-14T07:21:09;16.92;;;14.85;;
46491;SDS011;32206;51.446;6.792;2023-05-14T07:23:35;18.10;;;15.20;;
46491;SDS011;32206;51.446;6.792;2023-05-14T07:26:03;14.18;;;11.88;;
46491;SDS011;32206;51.446;6.792;2023-05-14T07:28:30;16.45;;;11.93;;
46491;SDS011;32206;51.446;6.792;2023-05-14T07:30:56;12.68;;;11.52;;
46491;SDS011;32206;51.446;6.792;2023-05-14T07:33:23;12.32;;;10.68;;
46491;SDS011;32206;51.446;6.792;2023-05-14T07:35:49;12.93;;;10.15;;
46491;SDS011;32206;51.446;6.792;2023-05-14T07:38:15;11.40;;;9.88;;
46491;SDS011;32206;51.446;6.792;2023-05-14T07:40:41;14.02;;;10.18;;
46491;SDS011;32206;51.446;6.792;2023-05-14T07:43:07;15.40;;;10.02;;
46491;SDS011;32206;51.446;6.792;2023-05-14T07:48:50;11.68;;;8.48;;
46491;SDS011;32206;51.446;6.792;2023-05-14T07:58:00;8.57;;;7.60;;
46491;SDS011;32206;51.446;6.792;2023-05-14T08:00:26;8.82;;;7.50;;
46491;SDS011;32206;51.446;6.792;2023-05-14T08:02:52;8.85;;;7.55;;
46491;SDS011;32206;51.446;6.792;2023-05-14T08:05:18;11.00;;;6.72;;
46491;SDS011;32206;51.446;6.792;2023-05-14T08:07:44;7.97;;;6.60;;
46491;SDS011;32206;51.446;6.792;2023-05-14T08:10:10;15.88;;;7.32;;
46491;SDS011;32206;51.446;6.792;2023-05-14T08:12:36;9.60;;;7.25;;
46491;SDS011;32206;51.446;6.792;2023-05-14T08:15:04;6.43;;;5.82;;
46491;SDS011;32206;51.446;6.792;2023-05-14T08:17:32;9.10;;;6.57;;
46491;SDS011;32206;51.446;6.792;2023-05-14T08:19:57;13.40;;;6.10;;
46491;SDS011;32206;51.446;6.792;2023-05-14T08:22:23;6.20;;;5.60;;
46491;SDS011;32206;51.446;6.792;2023-05-14T08:24:49;5.03;;;4.63;;
46491;SDS011;32206;51.446;6.792;2023-05-14T08:27:14;3.92;;;3.28;;
46491;SDS011;32206;51.446;6.792;2023-05-14T08:29:40;4.93;;;2.97;;
46491;SDS011;32206;51.446;6.792;2023-05-14T08:32:06;2.90;;;2.60;;
46491;SDS011;32206;51.446;6.792;2023-05-14T08:34:32;4.50;;;2.67;;
46491;SDS011;32206;51.446;6.792;2023-05-14T08:36:58;3.15;;;2.95;;
46491;SDS011;32206;51.446;6.792;2023-05-14T08:39:24;4.50;;;2.30;;
46491;SDS011;32206;51.446;6.792;2023-05-14T08:41:50;6.68;;;2.80;;
46491;SDS011;32206;51.446;6.792;2023-05-14T08:44:19;5.57;;;2.38;;
46491;SDS011;32206;51.446;6.792;2023-05-14T08:46:47;8.65;;;2.60;;
46491;SDS011;32206;51.446;6.792;2023-05-14T08:49:32;4.47;;;2.30;;
46491;SDS011;32206;51.446;6.792;2023-05-14T08:52:07;4.32;;;2.60;;
46491;SDS011;32206;51.446;6.792;2023-05-14T08:54:33;3.60;;;2.05;;
46491;SDS011;32206;51.446;6.792;2023-05-14T08:56:59;3.08;;;2.65;;
46491;SDS011;32206;51.446;6.792;2023-05-14T08:59:26;2.25;;;2.13;;
46491;SDS011;32206;51.446;6.792;2023-05-14T09:01:52;4.32;;;2.47;;
46491;SDS011;32206;51.446;6.792;2023-05-14T09:04:20;7.65;;;2.13;;
46491;SDS011;32206;51.446;6.792;2023-05-14T09:06:48;7.90;;;3.22;;
46491;SDS011;32206;51.446;6.792;2023-05-14T09:09:16;6.93;;;2.30;;
46491;SDS011;32206;51.446;6.792;2023-05-14T09:18:26;5.72;;;2.15;;
46491;SDS011;32206;51.446;6.792;2023-05-14T09:20:52;3.92;;;1.90;;
46491;SDS011;32206;51.446;6.792;2023-05-14T09:23:18;7.43;;;2.80;;
46491;SDS011;32206;51.446;6.792;2023-05-14T09:25:44;5.93;;;2.28;;
46491;SDS011;32206;51.446;6.792;2023-05-14T09:28:15;5.80;;;2.10;;
46491;SDS011;32206;51.446;6.792;2023-05-14T09:30:45;2.72;;;2.38;;
46491;SDS011;32206;51.446;6.792;2023-05-14T09:33:24;3.10;;;1.58;;
46491;SDS011;32206;51.446;6.792;2023-05-14T09:35:59;3.58;;;2.13;;
46491;SDS011;32206;51.446;6.792;2023-05-14T09:38:29;5.25;;;2.10;;
46491;SDS011;32206;51.446;6.792;2023-05-14T09:40:56;5.28;;;1.92;;
46491;SDS011;32206;51.446;6.792;2023-05-14T09:43:22;1.90;;;1.70;;
46491;SDS011;32206;51.446;6.792;2023-05-14T09:45:48;1.75;;;1.60;;
46491;SDS011;32206;51.446;6.792;2023-05-14T09:48:13;1.90;;;1.65;;
46491;SDS011;32206;51.446;6.792;2023-05-14T09:50:43;4.57;;;1.60;;
46491;SDS011;32206;51.446;6.792;2023-05-14T09:53:10;4.78;;;2.33;;
46491;SDS011;32206;51.446;6.792;2023-05-14T09:55:37;2.40;;;2.05;;
46491;SDS011;32206;51.446;6.792;2023-05-14T09:58:03;4.45;;;2.03;;
46491;SDS011;32206;51.446;6.792;2023-05-14T10:00:32;18.30;;;2.35;;
46491;SDS011;32206;51.446;6.792;2023-05-14T10:03:00;2.85;;;1.73;;
46491;SDS011;32206;51.446;6.792;2023-05-14T10:05:30;2.35;;;1.60;;
46491;SDS011;32206;51.446;6.792;2023-05-14T10:08:13;2.53;;;1.70;;
46491;SDS011;32206;51.446;6.792;2023-05-14T10:10:48;4.22;;;1.27;;
46491;SDS011;32206;51.446;6.792;2023-05-14T10:13:16;2.35;;;1.88;;
46491;SDS011;32206;51.446;6.792;2023-05-14T10:15:47;3.08;;;1.63;;
46491;SDS011;32206;51.446;6.792;2023-05-14T10:18:17;5.10;;;1.90;;
46491;SDS011;32206;51.446;6.792;2023-05-14T10:23:55;2.47;;;2.20;;
46491;SDS011;32206;51.446;6.792;2023-05-14T10:29:51;5.40;;;1.38;;
46491;SDS011;32206;51.446;6.792;2023-05-14T10:32:21;1.92;;;1.73;;
46491;SDS011;32206;51.446;6.792;2023-05-14T10:34:49;6.35;;;1.50;;
46491;SDS011;32206;51.446;6.792;2023-05-14T10:47:19;12.50;;;3.13;;
46491;SDS011;32206;51.446;6.792;2023-05-14T10:49:46;8.02;;;2.03;;
46491;SDS011;32206;51.446;6.792;2023-05-14T10:52:16;4.00;;;1.88;;
46491;SDS011;32206;51.446;6.792;2023-05-14T10:54:49;2.78;;;1.40;;
46491;SDS011;32206;51.446;6.792;2023-05-14T10:57:23;3.67;;;2.13;;
46491;SDS011;32206;51.446;6.792;2023-05-14T10:59:52;2.88;;;1.27;;
46491;SDS011;32206;51.446;6.792;2023-05-14T11:02:23;3.22;;;1.65;;
46491;SDS011;32206;51.446;6.792;2023-05-14T11:05:00;2.20;;;1.65;;
46491;SDS011;32206;51.446;6.792;2023-05-14T11:07:40;5.55;;;1.95;;
46491;SDS011;32206;51.446;6.792;2023-05-14T11:10:07;2.47;;;1.45;;
46491;SDS011;32206;51.446;6.792;2023-05-14T11:12:38;8.27;;;1.85;;
46491;SDS011;32206;51.446;6.792;2023-05-14T11:15:06;2.63;;;1.00;;
46491;SDS011;32206;51.446;6.792;2023-05-14T11:17:34;6.63;;;1.80;;
46491;SDS011;32206;51.446;6.792;2023-05-14T11:20:00;1.70;;;1.60;;
46491;SDS011;32206;51.446;6.792;2023-05-14T11:22:26;6.25;;;2.20;;
46491;SDS011;32206;51.446;6.792;2023-05-14T11:24:52;4.57;;;1.40;;
46491;SDS011;32206;51.446;6.792;2023-05-14T11:27:19;2.83;;;1.08;;
46491;SDS011;32206;51.446;6.792;2023-05-14T11:29:46;4.22;;;1.30;;
46491;SDS011;32206;51.446;6.792;2023-05-14T11:32:13;4.32;;;1.20;;
46491;SDS011;32206;51.446;6.792;2023-05-14T11:34:40;2.67;;;1.30;;
46491;SDS011;32206;51.446;6.792;2023-05-14T11:37:08;2.15;;;1.23;;
46491;SDS011;32206;51.446;6.792;2023-05-14T11:39:35;1.42;;;1.05;;
46491;SDS011;32206;51.446;6.792;2023-05-14T11:42:02;4.28;;;1.27;;
46491;SDS011;32206;51.446;6.792;2023-05-14T11:44:30;2.72;;;1.25;;
46491;SDS011;32206;51.446;6.792;2023-05-14T11:46:56;4.43;;;1.23;;
46491;SDS011;32206;51.446;6.792;2023-05-14T11:49:23;1.42;;;1.00;;
46491;SDS011;32206;51.446;6.792;2023-05-14T11:58:33;1.30;;;1.20;;
46491;SDS011;32206;51.446;6.792;2023-05-14T12:11:07;5.93;;;1.40;;
46491;SDS011;32206;51.446;6.792;2023-05-14T12:13:33;1.55;;;1.15;;
46491;SDS011;32206;51.446;6.792;2023-05-14T12:16:00;1.50;;;1.40;;
46491;SDS011;32206;51.446;6.792;2023-05-14T12:18:30;3.15;;;1.27;;
46491;SDS011;32206;51.446;6.792;2023-05-14T12:21:00;4.78;;;1.40;;
46491;SDS011;32206;51.446;6.792;2023-05-14T12:30:11;1.33;;;1.20;;
46491;SDS011;32206;51.446;6.792;2023-05-14T12:32:38;1.88;;;1.25;;
46491;SDS011;32206;51.446;6.792;2023-05-14T12:35:07;1.40;;;1.30;;
46491;SDS011;32206;51.446;6.792;2023-05-14T12:37:33;1.77;;;1.35;;
46491;SDS011;32206;51.446;6.792;2023-05-14T12:40:02;4.25;;;1.20;;
46491;SDS011;32206;51.446;6.792;2023-05-14T12:45:51;4.45;;;1.25;;
46491;SDS011;32206;51.446;6.792;2023-05-14T12:48:16;1.42;;;1.30;;
46491;SDS011;32206;51.446;6.792;2023-05-14T12:50:44;2.78;;;1.10;;
46491;SDS011;32206;51.446;6.792;2023-05-14T12:56:34;1.70;;;1.60;;
46491;SDS011;32206;51.446;6.792;2023-05-14T12:59:01;4.53;;;1.33;;
46491;SDS011;32206;51.446;6.792;2023-05-14T13:01:27;1.55;;;1.02;;
46491;SDS011;32206;51.446;6.792;2023-05-14T13:03:53;2.63;;;1.83;;
46491;SDS011;32206;51.446;6.792;2023-05-14T13:06:19;1.30;;;1.20;;
46491;SDS011;32206;51.446;6.792;2023-05-14T13:08:45;1.60;;;1.13;;
46491;SDS011;32206;51.446;6.792;2023-05-14T13:11:10;6.47;;;1.50;;
46491;SDS011;32206;51.446;6.792;2023-05-14T13:13:36;2.53;;;1.27;;
46491;SDS011;32206;51.446;6.792;2023-05-14T13:16:02;1.33;;;1.00;;
46491;SDS011;32206;51.446;6.792;2023-05-14T13:18:28;3.35;;;1.92;;
46491;SDS011;32206;51.446;6.792;2023-05-14T13:20:53;2.60;;;1.23;;
46491;SDS011;32206;51.446;6.792;2023-05-14T13:23:19;4.18;;;1.15;;
46491;SDS011;32206;51.446;6.792;2023-05-14T13:25:45;2.97;;;1.30;;
46491;SDS011;32206;51.446;6.792;2023-05-14T13:28:11;2.80;;;1.10;;
46491;SDS011;32206;51.446;6.792;2023-05-14T13:30:37;3.58;;;1.30;;
46491;SDS011;32206;51.446;6.792;2023-05-14T13:33:02;2.78;;;1.30;;
46491;SDS011;32206;51.446;6.792;2023-05-14T13:35:29;7.32;;;1.65;;
46491;SDS011;32206;51.446;6.792;2023-05-14T13:37:55;5.57;;;1.80;;
46491;SDS011;32206;51.446;6.792;2023-05-14T13:40:21;6.07;;;1.60;;
46491;SDS011;32206;51.446;6.792;2023-05-14T13:42:47;3.05;;;1.23;;
46491;SDS011;32206;51.446;6.792;2023-05-14T13:45:13;4.60;;;1.73;;
46491;SDS011;32206;51.446;6.792;2023-05-14T13:47:39;2.63;;;1.23;;
46491;SDS011;32206;51.446;6.792;2023-05-14T13:50:05;2.67;;;1.20;;
46491;SDS011;32206;51.446;6.792;2023-05-14T13:59:15;6.07;;;1.45;;
46491;SDS011;32206;51.446;6.792;2023-05-14T14:01:41;4.03;;;2.13;;
46491;SDS011;32206;51.446;6.792;2023-05-14T14:04:08;1.85;;;1.38;;
46491;SDS011;32206;51.446;6.792;2023-05-14T14:06:34;2.30;;;1.30;;
46491;SDS011;32206;51.446;6.792;2023-05-14T14:09:00;1.90;;;1.27;;
46491;SDS011;32206;51.446;6.792;2023-05-14T14:11:26;5.55;;;0.95;;
46491;SDS011;32206;51.446;6.792;2023-05-14T14:13:52;1.08;;;1.02;;
46491;SDS011;32206;51.446;6.792;2023-05-14T14:16:18;3.65;;;1.38;;
46491;SDS011;32206;51.446;6.792;2023-05-14T14:18:43;2.72;;;1.20;;
46491;SDS011;32206;51.446;6.792;2023-05-14T14:21:09;2.22;;;1.48;;
46491;SDS011;32206;51.446;6.792;2023-05-14T14:23:35;3.45;;;1.10;;
46491;SDS011;32206;51.446;6.792;2023-05-14T14:26:01;3.42;;;1.60;;
46491;SDS011;32206;51.446;6.792;2023-05-14T14:28:27;1.65;;;0.95;;
46491;SDS011;32206;51.446;6.792;2023-05-14T14:30:53;4.68;;;1.13;;
46491;SDS011;32206;51.446;6.792;2023-05-14T14:33:19;4.28;;;1.08;;
46491;SDS011;32206;51.446;6.792;2023-05-14T14:35:45;1.75;;;1.10;;
46491;SDS011;32206;51.446;6.792;2023-05-14T14:38:11;2.75;;;1.10;;
46491;SDS011;32206;51.446;6.792;2023-05-14T14:40:37;6.63;;;1.30;;
46491;SDS011;32206;51.446;6.792;2023-05-14T14:46:25;4.15;;;3.85;;
46491;SDS011;32206;51.446;6.792;2023-05-14T14:48:50;4.53;;;1.70;;
46491;SDS011;32206;51.446;6.792;2023-05-14T14:51:16;1.30;;;1.05;;
46491;SDS011;32206;51.446;6.792;2023-05-14T14:53:42;8.30;;;1.45;;
46491;SDS011;32206;51.446;6.792;2023-05-14T14:56:08;1.35;;;1.05;;
46491;SDS011;32206;51.446;6.792;2023-05-14T14:58:33;1.25;;;1.05;;
46491;SDS011;32206;51.446;6.792;2023-05-14T15:00:59;1.20;;;1.10;;
46491;SDS011;32206;51.446;6.792;2023-05-14T15:03:25;3.05;;;1.30;;
46491;SDS011;32206;51.446;6.792;2023-05-14T15:05:51;2.85;;;1.63;;
46491;SDS011;32206;51.446;6.792;2023-05-14T15:08:17;1.27;;;1.25;;
46491;SDS011;32206;51.446;6.792;2023-05-14T15:10:43;2.22;;;1.20;;
46491;SDS011;32206;51.446;6.792;2023-05-14T15:13:09;1.63;;;1.38;;
46491;SDS011;32206;51.446;6.792;2023-05-14T15:15:36;2.78;;;1.30;;
46491;SDS011;32206;51.446;6.792;2023-05-14T15:18:02;3.17;;;1.15;;
46491;SDS011;32206;51.446;6.792;2023-05-14T15:20:28;2.22;;;1.38;;
46491;SDS011;32206;51.446;6.792;2023-05-14T15:22:54;1.95;;;1.10;;
46491;SDS011;32206;51.446;6.792;2023-05-14T15:25:20;2.25;;;1.20;;
46491;SDS011;32206;51.446;6.792;2023-05-14T15:27:47;5.57;;;4.63;;
46491;SDS011;32206;51.446;6.792;2023-05-14T15:30:14;6.00;;;3.85;;
46491;SDS011;32206;51.446;6.792;2023-05-14T15:32:40;2.42;;;2.22;;
46491;SDS011;32206;51.446;6.792;2023-05-14T15:35:06;5.13;;;1.55;;
46491;SDS011;32206;51.446;6.792;2023-05-14T15:37:36;1.30;;;1.10;;
46491;SDS011;32206;51.446;6.792;2023-05-14T15:40:03;3.55;;;1.75;;
46491;SDS011;32206;51.446;6.792;2023-05-14T15:49:17;8.30;;;1.60;;
46491;SDS011;32206;51.446;6.792;2023-05-14T15:51:43;2.42;;;1.50;;
46491;SDS011;32206;51.446;6.792;2023-05-14T15:54:09;9.10;;;1.52;;
46491;SDS011;32206;51.446;6.792;2023-05-14T15:56:34;3.20;;;1.25;;
46491;SDS011;32206;51.446;6.792;2023-05-14T15:59:00;2.90;;;1.73;;
46491;SDS011;32206;51.446;6.792;2023-05-14T16:01:26;23.73;;;10.77;;
46491;SDS011;32206;51.446;6.792;2023-05-14T16:03:51;7.60;;;5.18;;
46491;SDS011;32206;51.446;6.792;2023-05-14T16:06:17;1.30;;;1.20;;
46491;SDS011;32206;51.446;6.792;2023-05-14T16:08:43;4.40;;;1.50;;
46491;SDS011;32206;51.446;6.792;2023-05-14T16:11:08;1.63;;;1.52;;
46491;SDS011;32206;51.446;6.792;2023-05-14T16:13:34;3.47;;;1.40;;
46491;SDS011;32206;51.446;6.792;2023-05-14T16:16:02;5.97;;;1.67;;
46491;SDS011;32206;51.446;6.792;2023-05-14T16:18:28;4.25;;;1.83;;
46491;SDS011;32206;51.446;6.792;2023-05-14T16:20:54;2.80;;;1.40;;
46491;SDS011;32206;51.446;6.792;2023-05-14T16:23:20;6.00;;;1.80;;
46491;SDS011;32206;51.446;6.792;2023-05-14T16:25:46;3.20;;;1.67;;
46491;SDS011;32206;51.446;6.792;2023-05-14T16:28:12;3.20;;;1.63;;
46491;SDS011;32206;51.446;6.792;2023-05-14T16:30:38;5.13;;;2.00;;
46491;SDS011;32206;51.446;6.792;2023-05-14T16:33:03;8.55;;;1.88;;
46491;SDS011;32206;51.446;6.792;2023-05-14T16:35:30;8.95;;;2.15;;
46491;SDS011;32206;51.446;6.792;2023-05-14T16:37:56;11.15;;;7.13;;
46491;SDS011;32206;51.446;6.792;2023-05-14T16:40:21;9.05;;;3.50;;
46491;SDS011;32206;51.446;6.792;2023-05-14T16:42:48;6.35;;;2.47;;
46491;SDS011;32206;51.446;6.792;2023-05-14T16:45:13;7.10;;;2.22;;
46491;SDS011;32206;51.446;6.792;2023-05-14T16:47:39;3.85;;;1.90;;
46491;SDS011;32206;51.446;6.792;2023-05-14T16:50:05;1.80;;;1.70;;
46491;SDS011;32206;51.446;6.792;2023-05-14T16:52:32;2.80;;;1.70;;
46491;SDS011;32206;51.446;6.792;2023-05-14T16:54:58;4.45;;;2.38;;
46491;SDS011;32206;51.446;6.792;2023-05-14T16:57:24;2.10;;;1.75;;
46491;SDS011;32206;51.446;6.792;2023-05-14T16:59:50;3.53;;;1.90;;